createdAt,value
2022-08-20T00:01:59.661Z,22.02
2022-08-20T00:04:22.355Z,22.02
2022-08-20T00:06:45.497Z,21.98
2022-08-20T00:09:08.377Z,21.98
2022-08-20T00:11:33.647Z,21.97
2022-08-20T00:13:59.521Z,21.95
2022-08-20T00:16:24.157Z,22.05
2022-08-20T00:18:47.516Z,22.08
2022-08-20T00:21:18.813Z,22.04
2022-08-20T00:23:44.180Z,22.01
2022-08-20T00:26:08.180Z,22.11
2022-08-20T00:28:30.758Z,22.05
2022-08-20T00:30:53.635Z,22.02
2022-08-20T00:33:21.684Z,21.83
2022-08-20T00:35:48.706Z,21.86
2022-08-20T00:38:11.760Z,21.86
2022-08-20T00:40:48.342Z,21.86
2022-08-20T00:43:29.156Z,21.83
2022-08-20T00:45:55.658Z,21.78
2022-08-20T00:48:18.639Z,21.69
2022-08-20T00:50:41.253Z,21.77
2022-08-20T00:53:06.064Z,21.74
2022-08-20T00:55:31.720Z,21.73
2022-08-20T00:58:01.348Z,21.70
2022-08-20T01:00:32.413Z,21.73
2022-08-20T01:02:56.068Z,21.73
2022-08-20T01:05:19.249Z,21.71
2022-08-20T01:07:43.420Z,21.73
2022-08-20T01:10:19.357Z,21.67
2022-08-20T01:12:46.539Z,21.60
2022-08-20T01:15:13.692Z,21.60
2022-08-20T01:17:46.246Z,21.59
2022-08-20T01:20:24.415Z,21.53
2022-08-20T01:23:27.231Z,21.46
2022-08-20T01:25:53.309Z,21.50
2022-08-20T01:28:20.133Z,21.47
2022-08-20T01:30:43.363Z,21.45
2022-08-20T01:33:06.308Z,21.39
2022-08-20T01:35:28.992Z,21.33
2022-08-20T01:37:52.280Z,21.39
2022-08-20T01:40:23.675Z,21.45
2022-08-20T01:42:51.116Z,21.40
2022-08-20T01:45:22.695Z,21.42
2022-08-20T01:47:50.415Z,21.45
2022-08-20T01:50:21.007Z,21.40
2022-08-20T01:52:55.222Z,21.40
2022-08-20T01:55:18.116Z,21.39
2022-08-20T01:57:41.084Z,21.38
2022-08-20T02:00:09.080Z,21.33
2022-08-20T02:02:43.379Z,21.32
2022-08-20T02:05:06.479Z,21.25
2022-08-20T02:07:30.083Z,21.22
2022-08-20T02:09:52.905Z,21.13
2022-08-20T02:12:16.685Z,21.12
2022-08-20T02:14:44.522Z,21.09
2022-08-20T02:17:07.086Z,21.11
2022-08-20T02:19:54.330Z,21.18
2022-08-20T02:22:35.682Z,21.22
2022-08-20T02:25:00.124Z,21.21
2022-08-20T02:27:23.814Z,21.22
2022-08-20T02:29:46.889Z,21.25
2022-08-20T02:32:24.255Z,21.28
2022-08-20T02:34:52.386Z,21.22
2022-08-20T02:37:16.815Z,21.23
2022-08-20T02:39:39.370Z,21.18
2022-08-20T02:42:05.236Z,21.18
2022-08-20T02:44:27.844Z,21.16
2022-08-20T02:46:50.809Z,21.19
2022-08-20T02:49:13.555Z,21.19
2022-08-20T02:51:36.605Z,21.21
2022-08-20T02:53:59.310Z,21.21
2022-08-20T02:56:21.776Z,21.22
2022-08-20T02:58:45.451Z,21.16
2022-08-20T03:01:12.680Z,21.18
2022-08-20T03:03:35.469Z,21.25
2022-08-20T03:05:59.726Z,21.26
2022-08-20T03:08:23.161Z,21.29
2022-08-20T03:10:47.667Z,21.22
2022-08-20T03:13:13.789Z,21.22
2022-08-20T03:15:36.328Z,21.15
2022-08-20T03:17:59.388Z,21.11
2022-08-20T03:20:41.975Z,21.05
2022-08-20T03:23:04.775Z,21.15
2022-08-20T03:25:27.654Z,21.12
2022-08-20T03:27:54.538Z,21.19
2022-08-20T03:30:19.434Z,21.22
2022-08-20T03:32:42.142Z,21.26
2022-08-20T03:35:07.557Z,21.29
2022-08-20T03:37:34.908Z,21.28
2022-08-20T03:39:57.572Z,21.23
2022-08-20T03:42:20.224Z,21.29
2022-08-20T03:44:43.337Z,21.28
2022-08-20T03:47:07.972Z,21.43
2022-08-20T03:49:30.470Z,21.53
2022-08-20T03:51:57.516Z,21.54
2022-08-20T03:54:21.060Z,21.30
2022-08-20T03:56:43.857Z,21.25
2022-08-20T03:59:06.368Z,21.23
2022-08-20T04:01:44.605Z,21.22
2022-08-20T04:04:12.686Z,21.22
2022-08-20T04:06:35.448Z,21.05
2022-08-20T04:08:58.797Z,21.03
2022-08-20T04:11:21.850Z,21.02
2022-08-20T04:13:44.433Z,21.15
2022-08-20T04:16:11.749Z,21.15
2022-08-20T04:18:37.536Z,21.18
2022-08-20T04:21:00.065Z,21.19
2022-08-20T04:23:22.954Z,21.22
2022-08-20T04:25:46.425Z,21.32
2022-08-20T04:28:14.141Z,21.32
2022-08-20T04:30:37.114Z,21.30
2022-08-20T04:33:00.041Z,21.32
2022-08-20T04:35:24.681Z,21.46
2022-08-20T04:37:48.232Z,21.46
2022-08-20T04:40:33.689Z,21.40
2022-08-20T04:42:57.264Z,21.39
2022-08-20T04:45:20.093Z,21.50
2022-08-20T04:47:42.744Z,21.63
2022-08-20T04:50:09.315Z,21.71
2022-08-20T04:52:33.273Z,21.76
2022-08-20T04:54:56.620Z,21.78
2022-08-20T04:57:19.533Z,21.84
2022-08-20T04:59:42.162Z,21.91
2022-08-20T05:02:04.829Z,22.04
2022-08-20T05:04:27.614Z,22.11
2022-08-20T05:06:50.233Z,22.14
2022-08-20T05:09:12.968Z,22.15
2022-08-20T05:11:37.020Z,22.28
2022-08-20T05:13:59.695Z,22.25
2022-08-20T05:16:24.076Z,22.31
2022-08-20T05:18:50.551Z,22.41
2022-08-20T05:21:15.655Z,22.56
2022-08-20T05:23:42.942Z,22.60
2022-08-20T05:26:07.689Z,22.66
2022-08-20T05:28:32.773Z,22.80
2022-08-20T05:31:02.793Z,22.84
2022-08-20T05:33:25.708Z,22.93
2022-08-20T05:35:49.684Z,22.99
2022-08-20T05:38:14.611Z,23.04
2022-08-20T05:40:38.793Z,23.20
2022-08-20T05:43:02.650Z,22.99
2022-08-20T05:45:28.568Z,22.87
2022-08-20T05:47:56.449Z,22.84
2022-08-20T05:50:23.191Z,22.73
2022-08-20T05:52:46.137Z,22.72
2022-08-20T05:55:11.229Z,22.72
2022-08-20T05:57:34.516Z,22.80
2022-08-20T05:59:57.240Z,22.83
2022-08-20T06:02:38.716Z,22.90
2022-08-20T06:05:01.888Z,23.04
2022-08-20T06:07:24.696Z,23.07
2022-08-20T06:09:47.419Z,23.17
2022-08-20T06:12:10.105Z,23.17
2022-08-20T06:14:32.947Z,23.04
2022-08-20T06:16:57.628Z,22.91
2022-08-20T06:19:26.190Z,22.77
2022-08-20T06:21:49.181Z,22.73
2022-08-20T06:24:12.042Z,22.84
2022-08-20T06:26:35.247Z,22.87
2022-08-20T06:28:59.297Z,22.97
2022-08-20T06:31:22.091Z,23.06
2022-08-20T06:33:44.943Z,23.11
2022-08-20T06:36:08.156Z,23.25
2022-08-20T06:38:32.740Z,23.48
2022-08-20T06:40:55.326Z,23.47
2022-08-20T06:43:18.003Z,23.37
2022-08-20T06:45:40.761Z,23.39
2022-08-20T06:48:08.940Z,23.34
2022-08-20T06:50:43.125Z,23.39
2022-08-20T06:53:12.380Z,23.34
2022-08-20T06:55:37.460Z,23.27
2022-08-20T06:58:05.573Z,23.31
2022-08-20T07:00:29.677Z,23.29
2022-08-20T07:02:52.798Z,23.25
2022-08-20T07:05:16.642Z,23.20
2022-08-20T07:07:39.684Z,23.21
2022-08-20T07:10:09.864Z,23.20
2022-08-20T07:12:36.592Z,23.17
2022-08-20T07:14:59.309Z,23.12
2022-08-20T07:17:24.090Z,23.08
2022-08-20T07:19:46.993Z,23.03
2022-08-20T07:22:09.743Z,23.07
2022-08-20T07:24:32.605Z,23.11
2022-08-20T07:26:57.001Z,23.01
2022-08-20T07:29:21.672Z,22.84
2022-08-20T07:32:03.232Z,22.70
2022-08-20T07:34:25.901Z,22.51
2022-08-20T07:36:48.917Z,22.21
2022-08-20T07:39:11.827Z,21.97
2022-08-20T07:41:35.299Z,21.74
2022-08-20T07:43:57.949Z,21.61
2022-08-20T07:46:21.713Z,21.45
2022-08-20T07:48:47.032Z,21.47
2022-08-20T07:51:11.081Z,21.43
2022-08-20T07:53:36.140Z,21.39
2022-08-20T07:55:59.561Z,21.45
2022-08-20T07:58:33.171Z,21.38
2022-08-20T08:00:56.438Z,21.40
2022-08-20T08:03:21.404Z,21.35
2022-08-20T08:06:02.727Z,21.22
2022-08-20T08:08:28.774Z,21.23
2022-08-20T08:10:55.809Z,21.21
2022-08-20T08:13:26.816Z,21.22
2022-08-20T08:15:50.446Z,21.19
2022-08-20T08:18:21.739Z,21.19
2022-08-20T08:20:46.590Z,21.26
2022-08-20T08:23:24.806Z,21.29
2022-08-20T08:25:54.589Z,21.09
2022-08-20T08:28:18.635Z,21.02
2022-08-20T08:30:42.664Z,20.88
2022-08-20T08:33:23.465Z,20.96
2022-08-20T08:35:46.589Z,21.01
2022-08-20T08:38:09.393Z,21.05
2022-08-20T08:40:37.130Z,21.18
2022-08-20T08:43:04.119Z,21.21
2022-08-20T08:45:38.198Z,21.22
2022-08-20T08:48:02.610Z,21.13
2022-08-20T08:50:52.875Z,20.95
2022-08-20T08:53:27.782Z,20.64
2022-08-20T08:55:50.406Z,20.60
2022-08-20T08:58:17.085Z,20.43
2022-08-20T09:00:50.776Z,20.40
2022-08-20T09:03:29.819Z,20.19
2022-08-20T09:05:55.049Z,20.25
2022-08-20T09:08:25.789Z,20.15
2022-08-20T09:10:48.356Z,20.08
2022-08-20T09:13:11.092Z,20.06
2022-08-20T09:15:34.070Z,19.92
2022-08-20T09:17:56.814Z,19.85
2022-08-20T09:20:23.061Z,19.92
2022-08-20T09:22:50.228Z,19.89
2022-08-20T09:25:14.864Z,19.83
2022-08-20T09:27:37.421Z,19.81
2022-08-20T09:30:03.505Z,19.71
2022-08-20T09:32:26.274Z,19.68
2022-08-20T09:34:52.611Z,19.64
2022-08-20T09:37:16.008Z,19.61
2022-08-20T09:39:38.817Z,19.49
2022-08-20T09:42:38.938Z,19.47
2022-08-20T09:45:04.195Z,19.43
2022-08-20T09:47:33.305Z,19.50
2022-08-20T09:49:56.034Z,19.44
2022-08-20T09:52:25.601Z,19.37
2022-08-20T09:54:48.818Z,19.37
2022-08-20T09:57:13.672Z,19.40
2022-08-20T09:59:37.035Z,19.57
2022-08-20T10:01:59.753Z,19.79
2022-08-20T10:04:22.536Z,20.00
2022-08-20T10:06:45.488Z,20.29
2022-08-20T10:09:08.165Z,20.63
2022-08-20T10:11:30.816Z,21.05
2022-08-20T10:13:53.465Z,21.57
2022-08-20T10:16:16.278Z,22.00
2022-08-20T10:18:39.063Z,22.25
2022-08-20T10:21:01.922Z,22.35
2022-08-20T10:23:24.592Z,22.53
2022-08-20T10:25:47.269Z,22.66
2022-08-20T10:28:10.703Z,22.77
2022-08-20T10:30:34.475Z,22.66
2022-08-20T10:32:57.173Z,22.86
2022-08-20T10:35:19.910Z,22.87
2022-08-20T10:37:42.494Z,23.00
2022-08-20T10:40:06.140Z,22.86
2022-08-20T10:42:29.400Z,22.86
2022-08-20T10:44:52.313Z,22.72
2022-08-20T10:47:18.215Z,22.69
2022-08-20T10:49:41.335Z,23.10
2022-08-20T10:52:06.106Z,23.14
2022-08-20T10:54:28.737Z,23.27
2022-08-20T10:56:51.315Z,23.47
2022-08-20T10:59:13.850Z,23.48
2022-08-20T11:01:45.284Z,23.59
2022-08-20T11:04:07.863Z,23.62
2022-08-20T11:06:30.475Z,23.72
2022-08-20T11:08:53.067Z,23.80
2022-08-20T11:11:15.641Z,23.86
2022-08-20T11:13:38.375Z,23.79
2022-08-20T11:16:02.843Z,23.99
2022-08-20T11:18:25.998Z,23.83
2022-08-20T11:20:48.709Z,23.68
2022-08-20T11:23:11.422Z,23.86
2022-08-20T11:25:34.149Z,23.90
2022-08-20T11:27:58.399Z,24.06
2022-08-20T11:30:28.666Z,24.18
2022-08-20T11:32:51.630Z,24.16
2022-08-20T11:35:40.941Z,24.06
2022-08-20T11:37:58.960Z,23.93
2022-08-20T11:40:22.628Z,24.07
2022-08-20T11:43:11.114Z,23.96
2022-08-20T11:45:27.881Z,23.68
2022-08-20T11:47:50.719Z,24.16
2022-08-20T11:50:19.576Z,24.47
2022-08-20T11:52:43.260Z,24.64
2022-08-20T11:55:08.362Z,24.51
2022-08-20T11:57:32.720Z,24.83
2022-08-20T11:59:57.276Z,24.75
2022-08-20T12:02:19.921Z,24.52
2022-08-20T12:04:42.592Z,24.61
2022-08-20T12:07:10.168Z,24.38
2022-08-20T12:09:32.849Z,24.79
2022-08-20T12:11:55.348Z,24.90
2022-08-20T12:14:17.968Z,24.86
2022-08-20T12:16:40.553Z,24.90
2022-08-20T12:19:03.425Z,24.92
2022-08-20T12:21:29.660Z,24.89
2022-08-20T12:23:54.601Z,24.89
2022-08-20T12:26:17.438Z,24.75
2022-08-20T12:28:40.038Z,24.92
2022-08-20T12:31:02.594Z,24.99
2022-08-20T12:33:25.551Z,25.20
2022-08-20T12:35:48.114Z,25.23
2022-08-20T12:38:11.063Z,25.28
2022-08-20T12:40:34.513Z,25.20
2022-08-20T12:42:57.398Z,25.43
2022-08-20T12:45:20.529Z,25.43
2022-08-20T12:47:45.547Z,25.02
2022-08-20T12:52:57.359Z,25.27
2022-08-20T12:55:24.464Z,25.41
2022-08-20T12:57:50.265Z,25.48
2022-08-20T13:00:16.669Z,25.54
2022-08-20T13:02:41.563Z,25.57
2022-08-20T13:05:07.696Z,25.03
2022-08-20T13:07:31.140Z,25.05
2022-08-20T13:09:53.985Z,25.00
2022-08-20T13:12:16.614Z,25.10
2022-08-20T13:14:39.172Z,25.00
2022-08-20T13:17:02.495Z,25.02
2022-08-20T13:19:26.728Z,24.86
2022-08-20T13:21:55.152Z,24.89
2022-08-20T13:24:17.896Z,24.98
2022-08-20T13:26:40.504Z,24.72
2022-08-20T13:29:03.237Z,24.81
2022-08-20T13:31:26.550Z,24.90
2022-08-20T13:33:49.138Z,24.85
2022-08-20T13:36:12.516Z,24.83
2022-08-20T13:38:35.308Z,24.93
2022-08-20T13:40:58.112Z,25.08
2022-08-20T13:43:20.623Z,25.17
2022-08-20T13:45:43.229Z,25.26
2022-08-20T13:48:09.973Z,25.27
2022-08-20T13:50:38.725Z,25.17
2022-08-20T13:53:01.636Z,24.98
2022-08-20T13:55:26.713Z,25.00
2022-08-20T13:57:51.114Z,25.13
2022-08-20T14:00:30.977Z,25.06
2022-08-20T14:02:54.302Z,25.15
2022-08-20T14:05:18.558Z,25.17
2022-08-20T14:07:43.145Z,25.23
2022-08-20T14:10:10.027Z,25.26
2022-08-20T14:12:32.720Z,25.30
2022-08-20T14:14:55.616Z,25.24
2022-08-20T14:17:26.219Z,25.13
2022-08-20T14:19:52.158Z,25.19
2022-08-20T14:22:17.781Z,25.19
2022-08-20T14:24:40.732Z,25.27
2022-08-20T14:27:08.009Z,25.33
2022-08-20T14:29:33.472Z,25.28
2022-08-20T14:31:59.390Z,25.33
2022-08-20T14:34:21.960Z,25.16
2022-08-20T14:36:44.909Z,25.24
2022-08-20T14:39:10.403Z,25.28
2022-08-20T14:41:32.872Z,25.24
2022-08-20T14:43:55.435Z,25.26
2022-08-20T14:46:17.926Z,25.16
2022-08-20T14:48:40.494Z,25.15
2022-08-20T14:51:03.278Z,25.23
2022-08-20T14:53:26.014Z,25.31
2022-08-20T14:55:48.590Z,25.23
2022-08-20T14:58:12.845Z,25.34
2022-08-20T15:00:35.744Z,25.36
2022-08-20T15:02:58.678Z,25.28
2022-08-20T15:05:21.489Z,25.38
2022-08-20T15:07:49.571Z,25.40
2022-08-20T15:10:19.558Z,25.57
2022-08-20T15:12:42.971Z,25.43
2022-08-20T15:15:13.343Z,25.50
2022-08-20T15:17:38.982Z,25.58
2022-08-20T15:20:09.731Z,25.57
2022-08-20T15:22:43.500Z,25.65
2022-08-20T15:25:08.470Z,25.63
2022-08-20T15:27:31.356Z,25.54
2022-08-20T15:29:54.520Z,25.55
2022-08-20T15:32:17.623Z,25.09
2022-08-20T15:34:41.802Z,25.05
2022-08-20T15:37:16.825Z,25.13
2022-08-20T15:39:41.075Z,25.13
2022-08-20T15:42:05.193Z,24.95
2022-08-20T15:44:27.761Z,25.30
2022-08-20T15:46:50.270Z,25.13
2022-08-20T15:49:12.933Z,25.15
2022-08-20T15:51:46.545Z,25.13
2022-08-20T15:54:19.759Z,25.20
2022-08-20T15:57:01.805Z,25.12
2022-08-20T15:59:33.745Z,24.85
2022-08-20T16:02:25.535Z,24.98
2022-08-20T16:04:57.673Z,25.00
2022-08-20T16:07:26.696Z,25.02
2022-08-20T16:10:15.621Z,25.05
2022-08-20T16:12:41.535Z,24.98
2022-08-20T16:15:09.991Z,25.00
2022-08-20T16:17:47.655Z,24.88
2022-08-20T16:20:18.815Z,24.62
2022-08-20T16:22:44.792Z,24.54
2022-08-20T16:25:08.124Z,24.52
2022-08-20T16:27:54.120Z,24.48
2022-08-20T16:30:44.939Z,24.33
2022-08-20T16:33:19.515Z,24.18
2022-08-20T16:36:07.850Z,23.99
2022-08-20T16:38:45.930Z,23.96
2022-08-20T16:41:31.127Z,23.93
2022-08-20T16:44:02.379Z,24.02
2022-08-20T16:46:28.867Z,23.97
2022-08-20T16:48:59.829Z,24.02
2022-08-20T16:51:31.013Z,23.99
2022-08-20T16:53:53.625Z,23.70
2022-08-20T16:56:41.143Z,23.61
2022-08-20T16:59:07.065Z,23.76
2022-08-20T17:01:29.833Z,23.86
2022-08-20T17:03:52.706Z,23.79
2022-08-20T17:06:36.244Z,23.63
2022-08-20T17:09:01.194Z,23.68
2022-08-20T17:11:32.078Z,23.68
2022-08-20T17:14:13.111Z,23.69
2022-08-20T17:16:55.010Z,23.66
2022-08-20T17:19:27.961Z,23.54
2022-08-20T17:21:51.143Z,23.55
2022-08-20T17:24:30.162Z,23.58
2022-08-20T17:27:00.762Z,23.59
2022-08-20T17:29:27.169Z,23.54
2022-08-20T17:31:52.886Z,23.34
2022-08-20T17:34:42.203Z,23.32
2022-08-20T17:37:18.817Z,23.31
2022-08-20T17:39:54.831Z,23.25
2022-08-20T17:42:25.644Z,23.21
2022-08-20T17:44:53.136Z,23.21
2022-08-20T17:47:21.579Z,23.10
2022-08-20T17:50:02.411Z,23.10
2022-08-20T17:52:30.723Z,23.00
2022-08-20T17:54:53.329Z,22.91
2022-08-20T17:57:18.823Z,22.91
2022-08-20T18:00:00.369Z,22.79
2022-08-20T18:02:29.222Z,22.73
2022-08-20T18:04:52.204Z,22.69
2022-08-20T18:07:43.308Z,22.56
2022-08-20T18:10:13.378Z,22.56
2022-08-20T18:12:47.892Z,22.46
2022-08-20T18:15:25.082Z,22.38
2022-08-20T18:17:56.503Z,22.28
2022-08-20T18:20:39.269Z,22.31
2022-08-20T18:23:11.495Z,22.32
2022-08-20T18:26:14.627Z,22.31
2022-08-20T18:28:48.839Z,22.28
2022-08-20T18:31:26.339Z,22.22
2022-08-20T18:33:48.959Z,22.16
2022-08-20T18:36:25.514Z,22.22
2022-08-20T18:39:03.987Z,22.18
2022-08-20T18:41:33.016Z,22.18
2022-08-20T18:44:40.498Z,22.21
2022-08-20T18:47:05.158Z,22.12
2022-08-20T18:49:32.567Z,22.07
2022-08-20T18:51:55.776Z,22.01
2022-08-20T18:54:31.415Z,22.05
2022-08-20T18:57:27.201Z,22.00
2022-08-20T19:00:04.507Z,22.04
2022-08-20T19:02:33.231Z,21.98
2022-08-20T19:05:02.630Z,21.91
2022-08-20T19:07:45.712Z,21.91
2022-08-20T19:10:39.489Z,21.84
2022-08-20T19:13:37.160Z,21.83
2022-08-20T19:16:07.995Z,21.73
2022-08-20T19:18:39.789Z,21.73
2022-08-20T19:21:03.831Z,21.74
2022-08-20T19:23:33.102Z,21.73
2022-08-20T19:26:00.556Z,21.67
2022-08-20T19:29:05.945Z,21.60
2022-08-20T19:31:32.343Z,21.64
2022-08-20T19:34:20.183Z,21.66
2022-08-20T19:36:45.131Z,21.63
2022-08-20T19:39:20.782Z,21.63
2022-08-20T19:42:02.710Z,21.63
2022-08-20T19:44:35.105Z,21.64
2022-08-20T19:46:59.359Z,21.57
2022-08-20T19:49:37.106Z,21.50
2022-08-20T19:52:26.750Z,21.56
2022-08-20T19:54:53.660Z,21.54
2022-08-20T19:57:18.374Z,21.54
2022-08-20T19:59:52.434Z,21.56
2022-08-20T20:02:20.525Z,21.59
2022-08-20T20:04:55.241Z,21.57
2022-08-20T20:07:37.695Z,21.51
2022-08-20T20:10:00.681Z,21.47
2022-08-20T20:12:24.244Z,21.54
2022-08-20T20:14:49.448Z,21.49
2022-08-20T20:17:22.982Z,21.49
2022-08-20T20:19:45.856Z,21.43
2022-08-20T20:22:19.334Z,21.43
2022-08-20T20:24:47.507Z,21.47
2022-08-20T20:27:20.132Z,21.51
2022-08-20T20:29:44.240Z,21.53
2022-08-20T20:32:19.577Z,21.50
2022-08-20T20:34:55.411Z,21.56
2022-08-20T20:37:48.891Z,21.57
2022-08-20T20:40:23.215Z,21.59
2022-08-20T20:43:07.687Z,21.57
2022-08-20T20:46:06.410Z,21.54
2022-08-20T20:48:39.385Z,21.56
2022-08-20T20:51:14.174Z,21.57
2022-08-20T20:53:53.235Z,21.56
2022-08-20T20:56:36.694Z,21.59
2022-08-20T20:59:05.503Z,21.51
2022-08-20T21:01:49.327Z,21.51
2022-08-20T21:04:11.942Z,21.47
2022-08-20T21:06:34.472Z,21.46
2022-08-20T21:08:58.071Z,21.33
2022-08-20T21:11:20.849Z,21.22
2022-08-20T21:13:43.744Z,21.26
2022-08-20T21:16:11.886Z,21.28
2022-08-20T21:18:36.776Z,21.26
2022-08-20T21:20:59.282Z,21.23
2022-08-20T21:23:22.039Z,21.26
2022-08-20T21:26:04.187Z,21.22
2022-08-20T21:28:28.510Z,21.25
2022-08-20T21:30:58.539Z,21.23
2022-08-20T21:33:21.273Z,21.25
2022-08-20T21:35:44.617Z,21.21
2022-08-20T21:38:07.111Z,21.18
2022-08-20T21:40:29.783Z,21.13
2022-08-20T21:42:52.676Z,21.12
2022-08-20T21:45:18.757Z,21.03
2022-08-20T21:47:43.073Z,21.01
2022-08-20T21:50:11.003Z,20.99
2022-08-20T21:52:35.584Z,20.96
2022-08-20T21:54:58.205Z,21.01
2022-08-20T21:57:25.463Z,20.96
2022-08-20T21:59:48.796Z,21.05
2022-08-20T22:02:11.622Z,20.99
2022-08-20T22:04:35.696Z,20.95
2022-08-20T22:06:58.491Z,20.87
2022-08-20T22:09:21.564Z,20.83
2022-08-20T22:11:44.146Z,20.83
2022-08-20T22:14:08.989Z,20.84
2022-08-20T22:16:31.898Z,20.77
2022-08-20T22:18:54.770Z,20.70
2022-08-20T22:21:23.658Z,20.77
2022-08-20T22:23:47.238Z,20.83
2022-08-20T22:26:10.931Z,20.80
2022-08-20T22:28:34.216Z,20.75
2022-08-20T22:30:57.329Z,20.75
2022-08-20T22:33:23.093Z,20.71
2022-08-20T22:35:49.925Z,20.84
2022-08-20T22:38:12.979Z,20.73
2022-08-20T22:40:35.521Z,20.77
2022-08-20T22:42:58.554Z,20.77
2022-08-20T22:45:21.439Z,20.81
2022-08-20T22:47:44.838Z,20.64
2022-08-20T22:50:08.868Z,20.65
2022-08-20T22:52:32.096Z,20.67
2022-08-20T22:54:55.328Z,20.63
2022-08-20T22:57:20.325Z,20.58
2022-08-20T22:59:49.816Z,20.65
2022-08-20T23:02:19.342Z,20.64
2022-08-20T23:04:42.126Z,20.60
2022-08-20T23:07:09.912Z,20.65
2022-08-20T23:09:35.310Z,20.57
2022-08-20T23:11:58.056Z,20.58
2022-08-20T23:14:21.281Z,20.61
2022-08-20T23:16:47.175Z,20.63
2022-08-20T23:19:13.420Z,20.65
2022-08-20T23:21:35.968Z,20.50
2022-08-20T23:23:58.544Z,20.47
2022-08-20T23:26:22.292Z,20.46
2022-08-20T23:28:44.879Z,20.48
2022-08-20T23:31:07.411Z,20.44
2022-08-20T23:33:31.442Z,20.44
2022-08-20T23:35:54.195Z,20.41
2022-08-20T23:38:16.907Z,20.41
2022-08-20T23:40:40.122Z,20.39
2022-08-20T23:43:02.892Z,20.39
2022-08-20T23:45:25.991Z,20.36
2022-08-20T23:47:49.994Z,20.32
2022-08-20T23:50:16.609Z,20.33
2022-08-20T23:52:39.843Z,20.32
2022-08-20T23:55:02.915Z,20.37
2022-08-20T23:57:25.693Z,20.32
2022-08-20T23:59:49.298Z,20.36
